createdAt,value
2018-06-29T00:00:24.432Z,72.34
2018-06-29T00:01:24.420Z,72.44
2018-06-29T00:02:24.407Z,72.44
2018-06-29T00:03:24.391Z,71.96
2018-06-29T00:04:24.380Z,72.25
2018-06-29T00:05:24.367Z,71.96
2018-06-29T00:06:24.372Z,72.73
2018-06-29T00:07:24.385Z,72.25
2018-06-29T00:08:24.326Z,72.64
2018-06-29T00:09:24.315Z,73.46
2018-06-29T00:10:24.299Z,73.21
2018-06-29T00:11:24.291Z,73.88
2018-06-29T00:12:24.334Z,73.46
2018-06-29T00:13:24.260Z,73.37
2018-06-29T00:14:24.255Z,72.99
2018-06-29T00:15:24.234Z,73.94
2018-06-29T00:16:24.236Z,73.66
2018-06-29T00:17:24.210Z,73.18
2018-06-29T00:18:24.195Z,73.60
2018-06-29T00:19:24.189Z,73.60
2018-06-29T00:20:24.172Z,73.79
2018-06-29T00:21:24.153Z,73.41
2018-06-29T00:22:24.143Z,73.46
2018-06-29T00:23:24.135Z,73.46
2018-06-29T00:24:24.114Z,74.43
2018-06-29T00:25:24.101Z,74.71
2018-06-29T00:26:24.090Z,74.62
2018-06-29T00:27:24.080Z,74.52
2018-06-29T00:28:24.065Z,74.43
2018-06-29T00:29:24.050Z,73.94
2018-06-29T00:30:24.042Z,74.04
2018-06-29T00:31:24.053Z,74.33
2018-06-29T00:32:24.015Z,74.13
2018-06-29T00:33:24.006Z,74.43
2018-06-29T00:34:23.984Z,74.04
2018-06-29T00:35:23.971Z,74.43
2018-06-29T00:36:24.004Z,73.75
2018-06-29T00:37:23.951Z,73.75
2018-06-29T00:38:23.933Z,73.56
2018-06-29T00:39:23.917Z,73.56
2018-06-29T00:40:23.901Z,74.33
2018-06-29T00:41:23.893Z,74.62
2018-06-29T00:42:24.025Z,74.62
2018-06-29T00:43:23.873Z,74.52
2018-06-29T00:44:23.850Z,74.62
2018-06-29T00:45:23.841Z,73.94
2018-06-29T00:46:23.821Z,73.37
2018-06-29T00:47:23.809Z,73.85
2018-06-29T00:48:23.798Z,74.04
2018-06-29T00:49:23.792Z,73.66
2018-06-29T00:50:23.770Z,73.46
2018-06-29T00:51:23.755Z,73.56
2018-06-29T00:52:23.872Z,73.56
2018-06-29T00:53:23.732Z,73.56
2018-06-29T00:54:23.719Z,73.56
2018-06-29T00:55:23.803Z,73.46
2018-06-29T00:56:23.688Z,73.85
2018-06-29T00:57:23.677Z,74.10
2018-06-29T00:58:23.665Z,74.19
2018-06-29T00:59:23.648Z,74.19
2018-06-29T01:00:23.632Z,73.81
2018-06-29T01:01:23.618Z,74.10
2018-06-29T01:02:23.607Z,74.01
2018-06-29T01:03:23.591Z,74.39
2018-06-29T01:04:23.578Z,74.48
2018-06-29T01:05:23.568Z,74.68
2018-06-29T01:06:23.553Z,74.58
2018-06-29T01:07:23.542Z,74.48
2018-06-29T01:08:23.533Z,74.77
2018-06-29T01:09:23.510Z,74.77
2018-06-29T01:10:23.496Z,74.77
2018-06-29T01:11:23.643Z,74.87
2018-06-29T01:12:23.471Z,74.87
2018-06-29T01:13:23.457Z,74.96
2018-06-29T01:14:23.447Z,74.58
2018-06-29T01:15:23.427Z,74.87
2018-06-29T01:16:23.414Z,74.87
2018-06-29T01:17:23.407Z,74.68
2018-06-29T01:18:23.400Z,74.58
2018-06-29T01:19:23.471Z,74.58
2018-06-29T01:20:23.361Z,75.25
2018-06-29T01:21:23.347Z,74.83
2018-06-29T01:22:23.339Z,75.06
2018-06-29T01:23:23.321Z,75.45
2018-06-29T01:24:23.307Z,75.15
2018-06-29T01:25:23.295Z,75.45
2018-06-29T01:26:23.279Z,75.70
2018-06-29T01:27:23.267Z,75.98
2018-06-29T01:28:23.254Z,76.37
2018-06-29T01:29:23.238Z,76.56
2018-06-29T01:30:23.223Z,76.65
2018-06-29T01:31:23.210Z,76.37
2018-06-29T01:32:23.195Z,76.65
2018-06-29T01:33:23.181Z,76.75
2018-06-29T01:34:23.169Z,76.84
2018-06-29T01:35:23.157Z,76.84
2018-06-29T01:36:23.147Z,76.37
2018-06-29T01:37:23.130Z,76.56
2018-06-29T01:38:23.116Z,76.84
2018-06-29T01:39:23.100Z,77.04
2018-06-29T01:40:23.084Z,76.65
2018-06-29T01:41:23.152Z,76.37
2018-06-29T01:42:23.063Z,76.75
2018-06-29T01:43:23.042Z,76.65
2018-06-29T01:44:23.031Z,76.65
2018-06-29T01:45:23.024Z,76.75
2018-06-29T01:46:23.002Z,76.65
2018-06-29T01:47:22.987Z,76.75
2018-06-29T01:48:22.975Z,76.94
2018-06-29T01:49:22.967Z,76.37
2018-06-29T01:50:22.948Z,76.62
2018-06-29T01:51:22.943Z,76.75
2018-06-29T01:52:22.919Z,76.62
2018-06-29T01:53:22.905Z,76.81
2018-06-29T01:54:22.992Z,77.29
2018-06-29T01:55:22.879Z,76.81
2018-06-29T01:56:22.862Z,76.94
2018-06-29T01:57:22.900Z,76.81
2018-06-29T01:58:22.837Z,77.23
2018-06-29T01:59:22.824Z,77.09
2018-06-29T02:00:22.811Z,77.19
2018-06-29T02:01:22.792Z,77.00
2018-06-29T02:02:22.777Z,77.38
2018-06-29T02:03:22.774Z,77.58
2018-06-29T02:04:22.749Z,77.86
2018-06-29T02:05:22.737Z,77.76
2018-06-29T02:06:22.721Z,78.05
2018-06-29T02:07:22.706Z,78.05
2018-06-29T02:08:22.701Z,77.95
2018-06-29T02:09:22.680Z,78.44
2018-06-29T02:10:22.667Z,78.53
2018-06-29T02:11:22.655Z,78.34
2018-06-29T02:12:22.637Z,78.15
2018-06-29T02:13:22.626Z,78.53
2018-06-29T02:14:22.610Z,78.15
2018-06-29T02:15:22.596Z,78.44
2018-06-29T02:16:22.585Z,79.30
2018-06-29T02:17:22.571Z,79.39
2018-06-29T02:18:22.660Z,79.59
2018-06-29T02:19:22.541Z,79.30
2018-06-29T02:20:22.532Z,79.30
2018-06-29T02:21:22.564Z,79.59
2018-06-29T02:22:22.497Z,79.78
2018-06-29T02:23:22.483Z,79.39
2018-06-29T02:24:22.469Z,79.11
2018-06-29T02:25:22.460Z,79.55
2018-06-29T02:26:22.443Z,79.78
2018-06-29T02:27:22.427Z,79.68
2018-06-29T02:28:22.412Z,79.78
2018-06-29T02:29:22.399Z,79.49
2018-06-29T02:30:22.445Z,79.74
2018-06-29T02:31:22.370Z,79.74
2018-06-29T02:32:22.357Z,79.74
2018-06-29T02:33:22.340Z,80.32
2018-06-29T02:34:22.325Z,80.32
2018-06-29T02:35:22.314Z,80.12
2018-06-29T02:36:22.302Z,79.93
2018-06-29T02:37:22.325Z,79.39
2018-06-29T02:38:22.271Z,80.26
2018-06-29T02:39:22.267Z,79.83
2018-06-29T02:40:22.295Z,80.22
2018-06-29T02:41:22.230Z,79.93
2018-06-29T02:42:22.214Z,80.16
2018-06-29T02:43:22.203Z,80.07
2018-06-29T02:44:22.185Z,79.88
2018-06-29T02:45:22.171Z,79.83
2018-06-29T02:46:22.160Z,80.70
2018-06-29T02:47:22.143Z,80.60
2018-06-29T02:48:22.129Z,80.51
2018-06-29T02:49:22.120Z,80.32
2018-06-29T02:50:22.099Z,80.07
2018-06-29T02:51:22.135Z,79.88
2018-06-29T02:52:22.075Z,80.51
2018-06-29T02:53:22.059Z,79.55
2018-06-29T02:54:22.049Z,79.97
2018-06-29T02:55:22.030Z,79.68
2018-06-29T02:56:22.029Z,79.74
2018-06-29T02:57:22.002Z,80.16
2018-06-29T02:58:21.985Z,80.03
2018-06-29T02:59:21.974Z,79.83
2018-06-29T03:00:21.961Z,80.70
2018-06-29T03:01:21.947Z,80.99
2018-06-29T03:02:21.930Z,81.85
2018-06-29T03:03:21.920Z,81.95
2018-06-29T03:04:21.937Z,81.27
2018-06-29T03:05:21.888Z,81.56
2018-06-29T03:06:21.884Z,81.56
2018-06-29T03:07:21.858Z,82.04
2018-06-29T03:08:21.853Z,82.42
2018-06-29T03:09:21.830Z,82.86
2018-06-29T03:10:21.823Z,82.42
2018-06-29T03:11:21.799Z,82.42
2018-06-29T03:12:21.788Z,82.32
2018-06-29T03:13:21.771Z,82.38
2018-06-29T03:14:21.759Z,82.04
2018-06-29T03:15:21.740Z,81.85
2018-06-29T03:16:21.729Z,82.52
2018-06-29T03:17:21.727Z,82.62
2018-06-29T03:18:21.703Z,82.32
2018-06-29T03:19:21.687Z,82.38
2018-06-29T03:20:21.771Z,82.38
2018-06-29T03:21:21.664Z,81.81
2018-06-29T03:22:21.653Z,82.48
2018-06-29T03:23:21.648Z,82.48
2018-06-29T03:24:21.615Z,81.95
2018-06-29T03:25:21.601Z,82.14
2018-06-29T03:26:21.591Z,81.85
2018-06-29T03:27:21.585Z,82.14
2018-06-29T03:28:21.558Z,82.23
2018-06-29T03:29:21.544Z,82.32
2018-06-29T03:30:21.532Z,82.48
2018-06-29T03:31:21.515Z,82.32
2018-06-29T03:32:21.502Z,82.32
2018-06-29T03:33:21.488Z,82.52
2018-06-29T03:34:21.469Z,81.95
2018-06-29T03:35:21.456Z,81.37
2018-06-29T03:36:21.558Z,81.37
2018-06-29T03:37:21.427Z,82.42
2018-06-29T03:38:21.410Z,82.04
2018-06-29T03:39:21.400Z,82.04
2018-06-29T03:40:21.418Z,82.04
2018-06-29T03:41:21.375Z,82.42
2018-06-29T03:42:21.363Z,82.32
2018-06-29T03:43:21.340Z,82.42
2018-06-29T03:44:21.325Z,82.42
2018-06-29T03:45:21.316Z,82.42
2018-06-29T03:46:21.297Z,81.85
2018-06-29T03:47:21.325Z,82.23
2018-06-29T03:48:21.270Z,82.32
2018-06-29T03:49:21.258Z,82.42
2018-06-29T03:50:21.241Z,82.42
2018-06-29T03:51:21.229Z,82.32
2018-06-29T03:52:21.213Z,81.56
2018-06-29T03:53:21.200Z,82.23
2018-06-29T03:54:21.184Z,81.51
2018-06-29T03:55:21.164Z,81.66
2018-06-29T03:56:21.152Z,82.04
2018-06-29T03:57:21.138Z,81.85
2018-06-29T03:58:21.132Z,81.51
2018-06-29T03:59:21.110Z,81.60
2018-06-29T04:00:21.097Z,81.70
2018-06-29T04:01:21.084Z,81.51
2018-06-29T04:02:21.066Z,81.70
2018-06-29T04:03:21.276Z,81.37
2018-06-29T04:04:21.037Z,81.66
2018-06-29T04:05:21.031Z,82.32
2018-06-29T04:06:21.021Z,82.14
2018-06-29T04:07:20.997Z,82.90
2018-06-29T04:08:20.987Z,83.82
2018-06-29T04:09:20.970Z,84.01
2018-06-29T04:10:20.953Z,84.39
2018-06-29T04:11:20.940Z,85.06
2018-06-29T04:12:20.930Z,85.64
2018-06-29T04:13:20.914Z,85.54
2018-06-29T04:14:20.900Z,85.35
2018-06-29T04:15:20.888Z,85.45
2018-06-29T04:16:20.870Z,85.35
2018-06-29T04:17:20.855Z,85.06
2018-06-29T04:18:20.841Z,85.64
2018-06-29T04:19:20.837Z,85.06
2018-06-29T04:20:20.811Z,85.16
2018-06-29T04:21:20.799Z,85.35
2018-06-29T04:22:20.797Z,84.49
2018-06-29T04:23:20.772Z,84.63
2018-06-29T04:24:20.758Z,84.63
2018-06-29T04:25:20.743Z,84.63
2018-06-29T04:26:20.735Z,84.34
2018-06-29T04:27:20.711Z,84.82
2018-06-29T04:28:20.698Z,84.34
2018-06-29T04:29:20.683Z,84.72
2018-06-29T04:30:20.670Z,84.91
2018-06-29T04:31:20.653Z,84.63
2018-06-29T04:32:20.641Z,84.72
2018-06-29T04:33:20.627Z,84.53
2018-06-29T04:34:20.626Z,84.53
2018-06-29T04:35:20.599Z,84.82
2018-06-29T04:36:20.582Z,84.15
2018-06-29T04:37:20.569Z,84.15
2018-06-29T04:38:20.561Z,84.72
2018-06-29T04:39:20.539Z,84.53
2018-06-29T04:40:20.527Z,84.72
2018-06-29T04:41:20.512Z,84.72
2018-06-29T04:42:20.500Z,84.44
2018-06-29T04:43:20.482Z,84.63
2018-06-29T04:44:20.470Z,84.63
2018-06-29T04:45:20.458Z,84.63
2018-06-29T04:46:20.543Z,84.72
2018-06-29T04:47:20.424Z,84.72
2018-06-29T04:48:20.419Z,84.44
2018-06-29T04:49:20.489Z,84.48
2018-06-29T04:50:20.385Z,84.63
2018-06-29T04:51:20.376Z,85.01
2018-06-29T04:52:20.360Z,84.34
2018-06-29T04:53:20.380Z,84.63
2018-06-29T04:54:20.331Z,84.15
2018-06-29T04:55:20.311Z,84.72
2018-06-29T04:56:20.296Z,84.72
2018-06-29T04:57:20.282Z,84.91
2018-06-29T04:58:20.266Z,84.72
2018-06-29T04:59:20.256Z,84.63
2018-06-29T05:00:20.244Z,84.67
2018-06-29T05:01:20.228Z,84.67
2018-06-29T05:02:20.212Z,84.28
2018-06-29T05:03:20.196Z,84.67
2018-06-29T05:04:20.179Z,84.48
2018-06-29T05:05:20.174Z,84.58
2018-06-29T05:06:20.157Z,84.19
2018-06-29T05:07:20.143Z,84.38
2018-06-29T05:08:20.130Z,84.58
2018-06-29T05:09:20.115Z,83.71
2018-06-29T05:10:20.100Z,83.71
2018-06-29T05:11:20.079Z,83.52
2018-06-29T05:12:20.064Z,83.91
2018-06-29T05:13:20.050Z,83.42
2018-06-29T05:14:20.037Z,83.56
2018-06-29T05:15:20.021Z,83.23
2018-06-29T05:16:20.006Z,83.33
2018-06-29T05:17:19.998Z,83.37
2018-06-29T05:18:19.976Z,82.94
2018-06-29T05:19:19.965Z,82.75
2018-06-29T05:20:19.960Z,83.47
2018-06-29T05:21:19.933Z,83.04
2018-06-29T05:22:19.918Z,83.18
2018-06-29T05:23:19.910Z,83.08
2018-06-29T05:24:19.890Z,82.79
2018-06-29T05:25:19.878Z,82.41
2018-06-29T05:26:19.860Z,83.08
2018-06-29T05:27:19.849Z,82.89
2018-06-29T05:28:19.841Z,82.89
2018-06-29T05:29:19.934Z,82.41
2018-06-29T05:30:19.806Z,82.21
2018-06-29T05:31:19.789Z,82.51
2018-06-29T05:32:19.777Z,82.79
2018-06-29T05:33:19.760Z,82.41
2018-06-29T05:34:19.754Z,82.31
2018-06-29T05:35:19.728Z,82.51
2018-06-29T05:36:19.735Z,82.31
2018-06-29T05:37:19.704Z,81.84
2018-06-29T05:38:19.688Z,81.64
2018-06-29T05:39:19.676Z,82.31
2018-06-29T05:40:19.657Z,82.60
2018-06-29T05:41:19.669Z,82.51
2018-06-29T05:42:19.633Z,82.89
2018-06-29T05:43:19.617Z,82.89
2018-06-29T05:44:19.601Z,82.60
2018-06-29T05:45:19.585Z,82.89
2018-06-29T05:46:19.794Z,82.79
2018-06-29T05:47:19.558Z,82.93
2018-06-29T05:48:19.601Z,82.45
2018-06-29T05:49:19.643Z,82.35
2018-06-29T05:50:19.513Z,82.35
2018-06-29T05:51:19.549Z,81.40
2018-06-29T05:52:19.490Z,81.49
2018-06-29T05:53:19.469Z,81.40
2018-06-29T05:54:19.461Z,80.82
2018-06-29T05:55:19.443Z,81.10
2018-06-29T05:56:19.427Z,81.68
2018-06-29T05:57:19.419Z,80.91
2018-06-29T05:58:19.400Z,80.34
2018-06-29T05:59:19.387Z,80.82
2018-06-29T06:00:19.383Z,80.53
2018-06-29T06:01:19.357Z,80.43
2018-06-29T06:02:19.349Z,80.86
2018-06-29T06:03:19.330Z,80.38
2018-06-29T06:04:19.316Z,80.38
2018-06-29T06:05:19.299Z,79.71
2018-06-29T06:06:19.284Z,80.28
2018-06-29T06:07:19.373Z,80.38
2018-06-29T06:08:19.265Z,79.90
2018-06-29T06:09:19.245Z,79.22
2018-06-29T06:10:19.236Z,79.80
2018-06-29T06:11:19.216Z,79.13
2018-06-29T06:12:19.205Z,78.36
2018-06-29T06:13:19.204Z,79.32
2018-06-29T06:14:19.176Z,78.55
2018-06-29T06:15:19.211Z,78.17
2018-06-29T06:16:19.150Z,79.22
2018-06-29T06:17:19.131Z,79.36
2018-06-29T06:18:19.121Z,78.65
2018-06-29T06:19:19.112Z,79.36
2018-06-29T06:20:19.092Z,78.69
2018-06-29T06:21:19.094Z,79.17
2018-06-29T06:22:19.064Z,78.88
2018-06-29T06:23:19.048Z,77.34
2018-06-29T06:24:19.047Z,77.15
2018-06-29T06:25:19.033Z,77.53
2018-06-29T06:26:19.010Z,78.21
2018-06-29T06:27:18.994Z,76.81
2018-06-29T06:28:18.981Z,76.71
2018-06-29T06:29:18.969Z,76.81
2018-06-29T06:30:18.956Z,77.09
2018-06-29T06:31:18.943Z,76.90
2018-06-29T06:32:18.922Z,76.32
2018-06-29T06:33:18.923Z,74.98
2018-06-29T06:34:18.898Z,75.46
2018-06-29T06:35:18.883Z,75.37
2018-06-29T06:36:18.867Z,76.04
2018-06-29T06:37:18.853Z,75.94
2018-06-29T06:38:18.839Z,75.37
2018-06-29T06:39:18.823Z,75.46
2018-06-29T06:40:18.809Z,75.17
2018-06-29T06:41:18.800Z,74.69
2018-06-29T06:42:18.788Z,75.27
2018-06-29T06:43:18.775Z,75.37
2018-06-29T06:44:18.757Z,75.46
2018-06-29T06:45:18.748Z,75.31
2018-06-29T06:46:18.731Z,75.02
2018-06-29T06:47:18.718Z,74.44
2018-06-29T06:48:18.703Z,75.02
2018-06-29T06:49:18.686Z,74.76
2018-06-29T06:50:18.671Z,74.57
2018-06-29T06:51:18.661Z,74.76
2018-06-29T06:52:18.645Z,74.86
2018-06-29T06:53:18.629Z,74.76
2018-06-29T06:54:18.617Z,75.63
2018-06-29T06:55:18.601Z,74.57
2018-06-29T06:56:18.609Z,74.09
2018-06-29T06:57:18.584Z,74.09
2018-06-29T06:58:18.568Z,74.96
2018-06-29T06:59:18.580Z,74.19
2018-06-29T07:00:18.535Z,73.90
2018-06-29T07:01:18.522Z,74.09
2018-06-29T07:02:18.509Z,74.29
2018-06-29T07:03:18.497Z,74.48
2018-06-29T07:04:18.481Z,73.94
2018-06-29T07:05:18.468Z,73.99
2018-06-29T07:06:18.453Z,73.90
2018-06-29T07:07:18.436Z,74.13
2018-06-29T07:08:18.424Z,72.30
2018-06-29T07:09:18.421Z,71.62
2018-06-29T07:10:18.397Z,72.30
2018-06-29T07:11:18.389Z,72.20
2018-06-29T07:12:18.367Z,72.78
2018-06-29T07:13:18.360Z,72.30
2018-06-29T07:14:18.390Z,72.05
2018-06-29T07:15:18.326Z,71.37
2018-06-29T07:16:18.313Z,71.56
2018-06-29T07:17:18.352Z,70.41
2018-06-29T07:18:18.294Z,69.19
2018-06-29T07:19:18.272Z,69.54
2018-06-29T07:20:18.263Z,69.25
2018-06-29T07:21:18.248Z,70.21
2018-06-29T07:22:18.233Z,70.41
2018-06-29T07:23:18.232Z,69.38
2018-06-29T07:24:18.206Z,69.77
2018-06-29T07:25:18.192Z,68.52
2018-06-29T07:26:18.179Z,69.19
2018-06-29T07:27:18.172Z,69.77
2018-06-29T07:28:18.159Z,70.06
2018-06-29T07:29:18.140Z,68.61
2018-06-29T07:30:18.178Z,69.09
2018-06-29T07:31:18.113Z,69.57
2018-06-29T07:32:18.099Z,68.80
2018-06-29T07:33:18.136Z,69.19
2018-06-29T07:34:18.077Z,68.23
2018-06-29T07:35:18.066Z,68.32
2018-06-29T07:36:18.057Z,69.13
2018-06-29T07:37:18.037Z,68.07
2018-06-29T07:38:18.021Z,67.23
2018-06-29T07:39:18.010Z,67.40
2018-06-29T07:40:18.006Z,68.07
2018-06-29T07:41:17.980Z,67.23
2018-06-29T07:42:17.970Z,68.01
2018-06-29T07:43:17.959Z,67.14
2018-06-29T07:44:17.941Z,67.14
2018-06-29T07:45:17.932Z,65.59
2018-06-29T07:46:17.923Z,66.36
2018-06-29T07:47:17.904Z,65.88
2018-06-29T07:48:17.890Z,63.76
2018-06-29T07:49:17.933Z,64.15
2018-06-29T07:50:17.865Z,64.82
2018-06-29T07:51:17.853Z,65.01
2018-06-29T07:52:17.842Z,65.01
2018-06-29T07:53:17.829Z,64.82
2018-06-29T07:54:17.814Z,65.01
2018-06-29T07:55:17.823Z,64.82
2018-06-29T07:56:17.800Z,64.53
2018-06-29T07:57:17.794Z,64.15
2018-06-29T07:58:17.954Z,63.18
2018-06-29T07:59:17.759Z,62.70
2018-06-29T08:00:17.740Z,62.82
2018-06-29T08:01:17.730Z,62.92
2018-06-29T08:02:17.740Z,63.12
2018-06-29T08:03:17.702Z,63.53
2018-06-29T08:04:17.691Z,61.80
2018-06-29T08:05:17.683Z,61.70
2018-06-29T08:06:17.663Z,61.80
2018-06-29T08:07:17.650Z,61.51
2018-06-29T08:08:17.640Z,61.02
2018-06-29T08:09:17.627Z,60.54
2018-06-29T08:10:17.618Z,60.54
2018-06-29T08:11:17.608Z,60.16
2018-06-29T08:12:17.590Z,60.06
2018-06-29T08:13:17.629Z,60.54
2018-06-29T08:14:17.567Z,60.93
2018-06-29T08:15:17.555Z,60.93
2018-06-29T08:16:17.549Z,60.93
2018-06-29T08:17:17.529Z,59.58
2018-06-29T08:18:17.520Z,59.96
2018-06-29T08:19:17.504Z,59.31
2018-06-29T08:20:17.496Z,59.60
2018-06-29T08:21:17.480Z,57.48
2018-06-29T08:22:17.472Z,59.22
2018-06-29T08:23:17.458Z,58.93
2018-06-29T08:24:17.513Z,58.35
2018-06-29T08:25:17.446Z,57.87
2018-06-29T08:26:17.429Z,57.87
2018-06-29T08:27:17.410Z,57.70
2018-06-29T08:28:17.405Z,56.45
2018-06-29T08:29:17.497Z,56.83
2018-06-29T08:30:17.385Z,56.73
2018-06-29T08:31:17.374Z,56.73
2018-06-29T08:32:17.350Z,55.57
2018-06-29T08:33:17.337Z,55.77
2018-06-29T08:34:17.328Z,56.05
2018-06-29T08:35:17.318Z,56.67
2018-06-29T08:36:17.309Z,57.05
2018-06-29T08:37:17.294Z,57.24
2018-06-29T08:38:17.282Z,56.86
2018-06-29T08:39:17.268Z,56.30
2018-06-29T08:40:17.262Z,56.30
2018-06-29T08:41:17.249Z,56.18
2018-06-29T08:42:17.264Z,56.09
2018-06-29T08:43:17.224Z,55.79
2018-06-29T08:44:17.279Z,55.89
2018-06-29T08:45:17.203Z,56.28
2018-06-29T08:46:17.191Z,56.28
2018-06-29T08:47:17.180Z,56.18
2018-06-29T08:48:17.169Z,55.92
2018-06-29T08:49:17.158Z,56.11
2018-06-29T08:50:17.142Z,55.53
2018-06-29T08:51:17.133Z,55.15
2018-06-29T08:52:17.154Z,54.69
2018-06-29T08:53:17.191Z,54.30
2018-06-29T08:54:17.099Z,53.53
2018-06-29T08:55:17.089Z,53.43
2018-06-29T08:56:17.089Z,52.85
2018-06-29T08:57:17.067Z,52.85
2018-06-29T08:58:17.052Z,53.43
2018-06-29T08:59:17.040Z,52.66
2018-06-29T09:00:17.029Z,51.98
2018-06-29T09:01:17.019Z,52.27
2018-06-29T09:02:17.006Z,52.17
2018-06-29T09:03:16.995Z,52.46
2018-06-29T09:04:16.999Z,52.08
2018-06-29T09:05:16.975Z,51.30
2018-06-29T09:06:16.966Z,51.20
2018-06-29T09:07:16.948Z,50.52
2018-06-29T09:08:16.938Z,50.89
2018-06-29T09:09:17.079Z,52.27
2018-06-29T09:10:16.922Z,51.50
2018-06-29T09:11:16.913Z,50.92
2018-06-29T09:12:16.896Z,51.56
2018-06-29T09:13:16.894Z,51.66
2018-06-29T09:14:16.888Z,52.27
2018-06-29T09:15:16.864Z,52.27
2018-06-29T09:16:16.859Z,51.78
2018-06-29T09:17:16.849Z,51.50
2018-06-29T09:18:16.840Z,52.27
2018-06-29T09:19:16.820Z,52.08
2018-06-29T09:20:16.810Z,51.98
2018-06-29T09:21:16.852Z,51.20
2018-06-29T09:22:16.793Z,51.01
2018-06-29T09:23:16.778Z,50.92
2018-06-29T09:24:16.815Z,51.10
2018-06-29T09:25:16.767Z,50.94
2018-06-29T09:26:16.754Z,51.23
2018-06-29T09:27:16.740Z,51.72
2018-06-29T09:28:16.726Z,51.42
2018-06-29T09:29:16.725Z,51.04
2018-06-29T09:30:16.709Z,50.35
2018-06-29T09:31:16.691Z,50.84
2018-06-29T09:32:16.685Z,50.74
2018-06-29T09:33:16.677Z,50.72
2018-06-29T09:34:16.662Z,51.52
2018-06-29T09:35:16.652Z,51.04
2018-06-29T09:36:16.738Z,50.92
2018-06-29T09:37:16.654Z,50.82
2018-06-29T09:38:16.621Z,50.52
2018-06-29T09:39:16.614Z,50.33
2018-06-29T09:40:16.598Z,50.72
2018-06-29T09:41:16.597Z,50.55
2018-06-29T09:42:16.585Z,50.48
2018-06-29T09:43:16.566Z,49.80
2018-06-29T09:44:16.559Z,49.70
2018-06-29T09:45:16.553Z,48.93
2018-06-29T09:46:16.534Z,48.83
2018-06-29T09:47:16.525Z,49.32
2018-06-29T09:48:16.511Z,49.02
2018-06-29T09:49:16.601Z,48.83
2018-06-29T09:50:16.501Z,49.12
2018-06-29T09:51:16.479Z,48.74
2018-06-29T09:52:16.472Z,49.12
2018-06-29T09:53:16.461Z,48.54
2018-06-29T09:54:16.447Z,49.51
2018-06-29T09:55:16.440Z,48.93
2018-06-29T09:56:16.439Z,49.32
2018-06-29T09:57:16.416Z,49.12
2018-06-29T09:58:16.412Z,49.22
2018-06-29T09:59:16.398Z,48.83
2018-06-29T10:00:16.392Z,49.19
2018-06-29T10:01:16.466Z,50.07
2018-06-29T10:02:16.367Z,49.61
2018-06-29T10:03:16.352Z,48.35
2018-06-29T10:04:16.345Z,47.47
2018-06-29T10:05:16.390Z,48.06
2018-06-29T10:06:16.331Z,48.74
2018-06-29T10:07:16.315Z,48.25
2018-06-29T10:08:16.307Z,47.57
2018-06-29T10:09:16.291Z,48.15
2018-06-29T10:10:16.280Z,49.61
2018-06-29T10:11:16.273Z,47.86
2018-06-29T10:12:16.261Z,47.86
2018-06-29T10:13:16.253Z,47.67
2018-06-29T10:14:16.361Z,47.96
2018-06-29T10:15:16.230Z,47.28
2018-06-29T10:16:16.230Z,46.22
2018-06-29T10:17:16.214Z,46.31
2018-06-29T10:18:16.208Z,47.20
2018-06-29T10:19:16.191Z,47.30
2018-06-29T10:20:16.289Z,47.30
2018-06-29T10:21:16.269Z,45.95
2018-06-29T10:22:16.235Z,45.75
2018-06-29T10:23:16.149Z,45.47
2018-06-29T10:24:16.225Z,46.33
2018-06-29T10:25:16.228Z,47.02
2018-06-29T10:26:16.275Z,47.20
2018-06-29T10:27:16.112Z,47.20
2018-06-29T10:28:16.232Z,46.92
2018-06-29T10:29:16.109Z,47.20
2018-06-29T10:30:16.082Z,45.39
2018-06-29T10:31:16.082Z,45.97
2018-06-29T10:32:16.068Z,45.00
2018-06-29T10:33:16.056Z,45.48
2018-06-29T10:34:16.042Z,45.29
2018-06-29T10:35:16.035Z,44.54
2018-06-29T10:36:16.026Z,41.92
2018-06-29T10:37:16.011Z,42.48
2018-06-29T10:38:16.004Z,44.23
2018-06-29T10:39:15.988Z,44.81
2018-06-29T10:40:15.994Z,45.02
2018-06-29T10:41:15.977Z,45.51
2018-06-29T10:42:16.119Z,44.15
2018-06-29T10:43:15.952Z,45.61
2018-06-29T10:44:15.942Z,45.70
2018-06-29T10:45:15.940Z,45.58
2018-06-29T10:46:15.924Z,46.45
2018-06-29T10:47:15.910Z,46.26
2018-06-29T10:48:15.900Z,46.16
2018-06-29T10:49:15.890Z,45.97
2018-06-29T10:50:15.883Z,46.07
2018-06-29T10:51:15.879Z,45.97
2018-06-29T10:52:15.863Z,45.80
2018-06-29T10:53:15.853Z,45.53
2018-06-29T10:54:15.842Z,45.53
2018-06-29T10:55:15.842Z,44.65
2018-06-29T10:56:15.850Z,44.27
2018-06-29T10:57:15.814Z,43.27
2018-06-29T10:58:15.959Z,44.24
2018-06-29T10:59:15.793Z,44.24
2018-06-29T11:00:15.785Z,44.34
2018-06-29T11:01:15.846Z,44.24
2018-06-29T11:02:15.779Z,43.95
2018-06-29T11:03:15.757Z,43.66
2018-06-29T11:04:15.749Z,44.73
2018-06-29T11:05:15.741Z,44.24
2018-06-29T11:06:15.730Z,44.37
2018-06-29T11:07:15.722Z,45.53
2018-06-29T11:08:15.706Z,45.04
2018-06-29T11:09:15.699Z,43.88
2018-06-29T11:10:15.694Z,42.81
2018-06-29T11:11:15.681Z,43.10
2018-06-29T11:12:15.668Z,42.33
2018-06-29T11:13:15.660Z,41.74
2018-06-29T11:14:15.801Z,42.81
2018-06-29T11:15:15.640Z,43.51
2018-06-29T11:16:15.638Z,42.33
2018-06-29T11:17:15.620Z,42.44
2018-06-29T11:18:15.612Z,42.03
2018-06-29T11:19:15.724Z,42.93
2018-06-29T11:20:15.604Z,42.64
2018-06-29T11:21:15.591Z,42.03
2018-06-29T11:22:15.679Z,41.64
2018-06-29T11:23:15.565Z,42.91
2018-06-29T11:24:15.556Z,41.96
2018-06-29T11:25:15.550Z,42.74
2018-06-29T11:26:15.555Z,41.94
2018-06-29T11:27:15.527Z,42.71
2018-06-29T11:28:15.526Z,42.23
2018-06-29T11:29:15.510Z,42.33
2018-06-29T11:30:15.513Z,41.94
2018-06-29T11:31:15.502Z,43.32
2018-06-29T11:32:15.479Z,42.83
2018-06-29T11:33:15.470Z,41.74
2018-06-29T11:34:15.464Z,41.47
2018-06-29T11:35:15.454Z,40.21
2018-06-29T11:36:15.451Z,39.53
2018-06-29T11:37:15.432Z,39.45
2018-06-29T11:38:15.480Z,38.67
2018-06-29T11:39:15.410Z,38.39
2018-06-29T11:40:15.407Z,37.90
2018-06-29T11:41:15.402Z,38.07
2018-06-29T11:42:15.388Z,38.27
2018-06-29T11:43:15.380Z,39.43
2018-06-29T11:44:15.448Z,39.92
2018-06-29T11:45:15.359Z,40.11
2018-06-29T11:46:15.347Z,40.21
2018-06-29T11:47:15.343Z,39.34
2018-06-29T11:48:15.337Z,41.49
2018-06-29T11:49:15.326Z,40.13
2018-06-29T11:50:15.311Z,39.65
2018-06-29T11:51:15.306Z,39.16
2018-06-29T11:52:15.291Z,38.48
2018-06-29T11:53:15.291Z,38.57
2018-06-29T11:54:15.309Z,38.29
2018-06-29T11:55:15.271Z,39.08
2018-06-29T11:56:15.257Z,39.28
2018-06-29T11:57:15.243Z,39.28
2018-06-29T11:58:15.233Z,39.18
2018-06-29T11:59:15.226Z,38.31
2018-06-29T12:00:15.215Z,38.21
2018-06-29T12:01:15.203Z,37.02
2018-06-29T12:02:15.202Z,37.51
2018-06-29T12:03:15.186Z,36.54
2018-06-29T12:04:15.178Z,37.68
2018-06-29T12:05:15.170Z,39.04
2018-06-29T12:06:15.162Z,39.36
2018-06-29T12:07:15.214Z,39.36
2018-06-29T12:08:15.139Z,39.45
2018-06-29T12:09:15.130Z,39.36
2018-06-29T12:10:15.124Z,39.26
2018-06-29T12:11:15.121Z,39.16
2018-06-29T12:12:15.109Z,38.96
2018-06-29T12:13:15.100Z,40.33
2018-06-29T12:14:15.091Z,38.48
2018-06-29T12:15:15.080Z,39.16
2018-06-29T12:16:15.068Z,39.75
2018-06-29T12:17:15.072Z,41.01
2018-06-29T12:18:15.048Z,39.36
2018-06-29T12:19:15.038Z,39.26
2018-06-29T12:20:15.030Z,39.06
2018-06-29T12:21:15.021Z,39.36
2018-06-29T12:22:15.016Z,39.26
2018-06-29T12:23:15.054Z,39.36
2018-06-29T12:24:14.998Z,38.77
2018-06-29T12:25:14.992Z,41.42
2018-06-29T12:26:14.973Z,40.54
2018-06-29T12:27:14.969Z,40.25
2018-06-29T12:28:14.959Z,40.64
2018-06-29T12:29:14.950Z,41.13
2018-06-29T12:30:14.951Z,40.73
2018-06-29T12:31:14.937Z,40.64
2018-06-29T12:32:14.920Z,41.05
2018-06-29T12:33:14.912Z,40.08
2018-06-29T12:34:14.903Z,40.08
2018-06-29T12:35:14.891Z,39.47
2018-06-29T12:36:14.880Z,40.15
2018-06-29T12:37:14.880Z,40.13
2018-06-29T12:38:14.864Z,40.13
2018-06-29T12:39:14.861Z,40.62
2018-06-29T12:40:14.852Z,41.39
2018-06-29T12:41:14.844Z,41.69
2018-06-29T12:42:14.834Z,41.42
2018-06-29T12:43:14.833Z,40.44
2018-06-29T12:44:14.922Z,40.15
2018-06-29T12:45:14.803Z,40.06
2018-06-29T12:46:14.805Z,40.34
2018-06-29T12:47:14.808Z,40.25
2018-06-29T12:48:14.775Z,40.25
2018-06-29T12:49:14.762Z,40.06
2018-06-29T12:50:14.753Z,40.33
2018-06-29T12:51:14.746Z,40.42
2018-06-29T12:52:14.740Z,40.21